createdAt,value
2022-12-27T00:01:53.697Z,0.10
2022-12-27T00:04:39.686Z,0.82
2022-12-27T00:07:25.417Z,10.37
2022-12-27T00:10:11.749Z,2.33
2022-12-27T00:12:57.608Z,4.72
2022-12-27T00:15:44.324Z,0.10
2022-12-27T00:18:30.006Z,1.20
2022-12-27T00:21:17.050Z,0.20
2022-12-27T00:24:04.586Z,1.65
2022-12-27T00:26:50.228Z,2.88
2022-12-27T00:29:35.609Z,0.40
2022-12-27T00:32:21.374Z,0.10
2022-12-27T00:35:07.853Z,3.75
2022-12-27T00:37:53.260Z,0.20
2022-12-27T00:40:42.747Z,0.10
2022-12-27T00:43:28.784Z,5.78
2022-12-27T00:46:15.068Z,3.28
2022-12-27T00:49:00.638Z,0.10
2022-12-27T00:51:46.216Z,0.20
2022-12-27T00:54:31.842Z,0.20
2022-12-27T00:57:17.274Z,6.32
2022-12-27T01:00:10.055Z,1.98
2022-12-27T01:02:56.388Z,13.80
2022-12-27T01:05:43.160Z,1.67
2022-12-27T01:08:30.161Z,0.52
2022-12-27T01:11:17.442Z,1.40
2022-12-27T01:14:04.930Z,4.10
2022-12-27T01:16:51.196Z,3.33
2022-12-27T01:19:37.330Z,4.80
2022-12-27T01:22:23.387Z,13.43
2022-12-27T01:25:09.869Z,1.45
2022-12-27T01:27:55.555Z,3.83
2022-12-27T01:30:41.073Z,0.25
2022-12-27T01:33:26.600Z,2.25
2022-12-27T01:36:16.545Z,3.15
2022-12-27T01:39:02.320Z,0.25
2022-12-27T01:42:06.511Z,4.68
2022-12-27T01:44:57.555Z,3.30
2022-12-27T01:48:01.767Z,3.60
2022-12-27T01:50:51.323Z,0.50
2022-12-27T01:53:42.335Z,0.98
2022-12-27T01:56:31.643Z,5.10
2022-12-27T01:59:17.537Z,4.13
2022-12-27T02:02:03.876Z,4.03
2022-12-27T02:04:49.970Z,3.08
2022-12-27T02:07:50.274Z,1.48
2022-12-27T02:10:36.723Z,2.53
2022-12-27T02:13:23.092Z,0.20
2022-12-27T02:16:13.657Z,1.55
2022-12-27T02:18:59.616Z,4.80
2022-12-27T02:22:11.503Z,0.10
2022-12-27T02:25:15.660Z,0.75
2022-12-27T02:28:26.407Z,0.35
2022-12-27T02:31:19.275Z,0.20
2022-12-27T02:34:34.589Z,0.10
2022-12-27T02:37:24.161Z,0.10
2022-12-27T02:40:30.411Z,0.20
2022-12-27T02:43:35.371Z,3.67
2022-12-27T02:46:45.443Z,0.10
2022-12-27T02:49:53.081Z,0.10
2022-12-27T02:53:18.031Z,0.80
2022-12-27T02:56:52.057Z,1.50
2022-12-27T03:00:15.113Z,1.40
2022-12-27T03:03:21.425Z,1.60
2022-12-27T03:06:41.297Z,0.70
2022-12-27T03:10:03.527Z,0.10
2022-12-27T03:13:18.243Z,0.10
2022-12-27T03:16:31.994Z,1.80
2022-12-27T03:19:40.435Z,1.55
2022-12-27T03:22:48.040Z,0.28
2022-12-27T03:25:36.288Z,0.20
2022-12-27T03:28:45.604Z,0.40
2022-12-27T03:31:55.593Z,0.10
2022-12-27T03:34:47.351Z,0.30
2022-12-27T03:37:55.884Z,0.10
2022-12-27T03:41:17.847Z,0.15
2022-12-27T03:44:23.154Z,1.37
2022-12-27T03:47:30.283Z,0.20
2022-12-27T03:50:27.163Z,0.28
2022-12-27T03:53:18.917Z,0.70
2022-12-27T03:56:06.102Z,0.10
2022-12-27T03:58:52.709Z,1.90
2022-12-27T04:01:38.494Z,1.23
2022-12-27T04:04:24.522Z,0.40
2022-12-27T04:07:13.407Z,3.20
2022-12-27T04:10:17.516Z,0.53
2022-12-27T04:13:21.384Z,0.30
2022-12-27T04:16:25.618Z,0.80
2022-12-27T04:19:29.629Z,0.40
2022-12-27T04:22:33.941Z,0.13
2022-12-27T04:25:38.213Z,1.80
2022-12-27T04:28:42.038Z,0.20
2022-12-27T04:31:46.171Z,0.77
2022-12-27T04:34:43.775Z,2.63
2022-12-27T04:37:29.487Z,0.52
2022-12-27T04:40:33.909Z,0.47
2022-12-27T04:43:37.788Z,0.70
2022-12-27T04:46:44.247Z,0.87
2022-12-27T04:49:48.108Z,5.72
2022-12-27T04:52:53.019Z,2.17
2022-12-27T04:55:38.768Z,0.30
2022-12-27T04:58:25.139Z,0.43
2022-12-27T05:01:29.123Z,0.10
2022-12-27T05:04:14.917Z,1.30
2022-12-27T05:07:21.064Z,2.00
2022-12-27T05:10:25.820Z,0.50
2022-12-27T05:13:31.303Z,1.55
2022-12-27T05:16:16.953Z,2.08
2022-12-27T05:19:02.845Z,0.63
2022-12-27T05:22:06.923Z,0.83
2022-12-27T05:25:10.920Z,1.07
2022-12-27T05:27:56.707Z,0.67
2022-12-27T05:30:43.729Z,1.40
2022-12-27T05:33:31.991Z,0.70
2022-12-27T05:36:17.900Z,1.33
2022-12-27T05:39:03.785Z,0.28
2022-12-27T05:41:49.614Z,0.53
2022-12-27T05:44:35.192Z,4.00
2022-12-27T05:47:20.582Z,0.65
2022-12-27T05:50:07.220Z,0.87
2022-12-27T05:52:52.677Z,0.47
2022-12-27T05:55:38.304Z,0.23
2022-12-27T05:58:25.794Z,1.93
2022-12-27T06:01:14.085Z,0.37
2022-12-27T06:03:59.908Z,1.37
2022-12-27T06:06:45.498Z,0.53
2022-12-27T06:09:31.366Z,1.00
2022-12-27T06:12:17.133Z,0.10
2022-12-27T06:15:04.293Z,2.40
2022-12-27T06:17:49.773Z,1.17
2022-12-27T06:20:35.284Z,0.47
2022-12-27T06:23:20.813Z,1.23
2022-12-27T06:26:07.755Z,0.30
2022-12-27T06:28:55.470Z,0.30
2022-12-27T06:31:41.643Z,0.23
2022-12-27T06:34:27.592Z,1.30
2022-12-27T06:37:13.176Z,0.20
2022-12-27T06:39:58.893Z,0.30
2022-12-27T06:42:44.476Z,0.38
2022-12-27T06:45:30.073Z,0.67
2022-12-27T06:48:15.472Z,2.60
2022-12-27T06:51:07.589Z,2.00
2022-12-27T06:53:53.290Z,4.87
2022-12-27T06:56:38.826Z,1.07
2022-12-27T06:59:24.677Z,3.20
2022-12-27T07:02:11.756Z,0.93
2022-12-27T07:04:57.621Z,1.02
2022-12-27T07:07:43.244Z,0.20
2022-12-27T07:10:29.039Z,1.77
2022-12-27T07:13:14.501Z,1.60
2022-12-27T07:16:00.038Z,4.33
2022-12-27T07:18:47.144Z,19.67
2022-12-27T07:21:37.213Z,6.43
2022-12-27T07:24:23.657Z,0.30
2022-12-27T07:27:09.338Z,4.50
2022-12-27T07:29:54.935Z,3.03
2022-12-27T07:32:40.401Z,3.73
2022-12-27T07:35:25.951Z,0.80
2022-12-27T07:38:11.796Z,3.75
2022-12-27T07:41:02.401Z,1.85
2022-12-27T07:43:48.164Z,4.50
2022-12-27T07:46:34.092Z,4.17
2022-12-27T07:49:19.788Z,5.27
2022-12-27T07:52:05.559Z,3.93
2022-12-27T07:54:50.922Z,1.95
2022-12-27T07:57:36.817Z,0.50
2022-12-27T08:00:22.308Z,6.78
2022-12-27T08:03:10.657Z,0.20
2022-12-27T08:05:56.208Z,0.30
2022-12-27T08:08:44.167Z,0.27
2022-12-27T08:11:31.161Z,0.50
2022-12-27T08:14:18.087Z,2.00
2022-12-27T08:17:27.558Z,4.18
2022-12-27T08:20:16.677Z,2.35
2022-12-27T08:23:02.707Z,3.20
2022-12-27T08:25:49.042Z,1.10
2022-12-27T08:28:36.087Z,0.20
2022-12-27T08:31:21.950Z,1.95
2022-12-27T08:34:09.173Z,2.47
2022-12-27T08:36:56.121Z,4.00
2022-12-27T08:39:42.739Z,1.63
2022-12-27T08:42:28.284Z,0.50
2022-12-27T08:45:14.326Z,0.15
2022-12-27T08:48:00.498Z,0.20
2022-12-27T08:50:46.281Z,4.47
2022-12-27T08:53:34.656Z,0.10
2022-12-27T08:56:20.207Z,0.10
2022-12-27T08:59:05.808Z,6.40
2022-12-27T09:01:51.536Z,0.15
2022-12-27T09:04:36.870Z,1.23
2022-12-27T09:07:22.896Z,0.10
2022-12-27T09:10:09.321Z,2.92
2022-12-27T09:12:55.190Z,1.13
2022-12-27T09:15:42.086Z,2.15
2022-12-27T09:18:31.303Z,2.67
2022-12-27T09:21:19.615Z,3.30
2022-12-27T09:24:05.552Z,5.32
2022-12-27T09:26:53.183Z,0.52
2022-12-27T09:29:43.007Z,1.95
2022-12-27T09:32:32.070Z,8.40
2022-12-27T09:35:17.880Z,4.78
2022-12-27T09:38:03.756Z,12.57
2022-12-27T09:40:58.001Z,8.85
2022-12-27T09:44:13.005Z,1.33
2022-12-27T09:47:39.269Z,5.15
2022-12-27T09:50:27.703Z,7.63
2022-12-27T09:53:39.460Z,9.82
2022-12-27T09:56:54.010Z,0.55
2022-12-27T09:59:42.658Z,9.40
2022-12-27T10:02:30.063Z,1.92
2022-12-27T10:05:31.716Z,6.43
2022-12-27T10:08:55.943Z,5.03
2022-12-27T10:12:20.262Z,30.42
2022-12-27T10:15:46.994Z,4.75
2022-12-27T10:18:49.015Z,7.75
2022-12-27T10:21:40.038Z,18.00
2022-12-27T10:24:51.362Z,9.52
2022-12-27T10:27:38.086Z,1.20
2022-12-27T10:30:23.721Z,4.70
2022-12-27T10:33:29.405Z,0.38
2022-12-27T10:36:34.400Z,10.07
2022-12-27T10:39:21.721Z,0.20
2022-12-27T10:42:19.048Z,0.10
2022-12-27T10:45:39.273Z,0.50
2022-12-27T10:48:32.168Z,6.50
2022-12-27T10:51:33.542Z,2.15
2022-12-27T10:54:26.934Z,1.27
2022-12-27T10:57:25.930Z,2.33
2022-12-27T11:00:22.159Z,2.80
2022-12-27T11:03:19.349Z,0.77
2022-12-27T11:06:07.771Z,0.30
2022-12-27T11:08:54.627Z,0.10
2022-12-27T11:11:40.223Z,0.68
2022-12-27T11:14:25.782Z,0.10
2022-12-27T11:17:14.209Z,0.70
2022-12-27T11:20:02.388Z,0.30
2022-12-27T11:23:13.561Z,0.10
2022-12-27T11:26:01.588Z,8.88
2022-12-27T11:28:55.094Z,3.47
2022-12-27T11:31:47.970Z,2.55
2022-12-27T11:34:44.057Z,2.33
2022-12-27T11:37:29.586Z,9.55
2022-12-27T11:40:30.670Z,5.50
2022-12-27T11:43:19.336Z,19.95
2022-12-27T11:46:13.894Z,8.93
2022-12-27T11:48:59.361Z,1.15
2022-12-27T11:51:56.788Z,3.85
2022-12-27T11:55:13.121Z,2.78
2022-12-27T11:58:25.146Z,14.15
2022-12-27T12:01:48.852Z,0.85
2022-12-27T12:05:03.121Z,2.42
2022-12-27T12:07:54.524Z,1.90
2022-12-27T12:10:43.191Z,1.88
2022-12-27T12:13:47.798Z,5.10
2022-12-27T12:17:04.438Z,0.20
2022-12-27T12:20:35.564Z,3.60
2022-12-27T12:23:58.287Z,7.63
2022-12-27T12:27:18.165Z,13.02
2022-12-27T12:30:52.738Z,2.65
2022-12-27T12:33:58.785Z,0.20
2022-12-27T12:36:53.548Z,8.50
2022-12-27T12:39:51.013Z,12.45
2022-12-27T12:43:08.950Z,8.02
2022-12-27T12:46:25.948Z,4.43
2022-12-27T12:49:28.087Z,1.45
2022-12-27T12:52:30.978Z,3.88
2022-12-27T12:55:38.630Z,8.70
2022-12-27T12:58:49.160Z,9.60
2022-12-27T13:02:02.918Z,3.00
2022-12-27T13:04:54.498Z,0.52
2022-12-27T13:08:00.329Z,2.40
2022-12-27T13:10:55.035Z,8.38
2022-12-27T13:13:59.285Z,9.05
2022-12-27T13:17:09.711Z,9.60
2022-12-27T13:20:00.004Z,4.18
2022-12-27T13:22:53.811Z,15.65
2022-12-27T13:25:55.319Z,9.18
2022-12-27T13:28:55.643Z,17.20
2022-12-27T13:32:05.103Z,14.23
2022-12-27T13:35:21.479Z,3.75
2022-12-27T13:38:13.655Z,1.73
2022-12-27T13:41:11.364Z,31.10
2022-12-27T13:44:09.416Z,17.85
2022-12-27T13:47:33.111Z,18.10
2022-12-27T13:50:36.925Z,29.60
2022-12-27T13:54:00.336Z,33.25
2022-12-27T13:57:18.877Z,34.20
2022-12-27T14:00:09.718Z,26.02
2022-12-27T14:03:10.432Z,28.90
2022-12-27T14:06:26.752Z,16.73
2022-12-27T14:09:26.464Z,39.30
2022-12-27T14:12:53.309Z,28.17
2022-12-27T14:16:11.849Z,28.63
2022-12-27T14:19:16.245Z,15.63
2022-12-27T14:22:11.143Z,15.35
2022-12-27T14:25:34.381Z,35.60
2022-12-27T14:28:28.866Z,10.60
2022-12-27T14:31:42.365Z,20.40
2022-12-27T14:35:05.913Z,7.47
2022-12-27T14:38:15.700Z,9.93
2022-12-27T14:41:37.096Z,0.50
2022-12-27T14:44:56.059Z,14.85
2022-12-27T14:47:47.847Z,17.08
2022-12-27T14:51:00.899Z,26.25
2022-12-27T14:54:28.007Z,25.70
2022-12-27T14:57:43.548Z,34.42
2022-12-27T15:00:44.677Z,14.45
2022-12-27T15:04:02.294Z,7.15
2022-12-27T15:07:02.747Z,11.90
2022-12-27T15:10:09.344Z,17.55
2022-12-27T15:13:15.586Z,36.87
2022-12-27T15:16:14.988Z,30.52
2022-12-27T15:19:19.844Z,37.92
2022-12-27T15:22:29.060Z,18.50
2022-12-27T15:25:48.519Z,31.80
2022-12-27T15:29:16.595Z,27.70
2022-12-27T15:32:02.335Z,31.67
2022-12-27T15:35:07.354Z,44.25
2022-12-27T15:38:01.249Z,10.88
2022-12-27T15:40:55.253Z,24.00
2022-12-27T15:44:12.317Z,4.32
2022-12-27T15:47:38.088Z,20.83
2022-12-27T15:50:35.619Z,48.50
2022-12-27T15:53:48.485Z,14.52
2022-12-27T15:56:37.196Z,4.00
2022-12-27T15:59:37.534Z,10.97
2022-12-27T16:02:52.458Z,7.28
2022-12-27T16:05:47.750Z,12.18
2022-12-27T16:08:40.365Z,20.48
2022-12-27T16:12:04.590Z,8.65
2022-12-27T16:14:50.582Z,27.98
2022-12-27T16:17:52.049Z,18.33
2022-12-27T16:20:39.728Z,17.00
2022-12-27T16:23:28.617Z,24.80
2022-12-27T16:26:20.465Z,17.77
2022-12-27T16:29:07.929Z,11.10
2022-12-27T16:32:15.366Z,1.30
2022-12-27T16:35:14.726Z,25.65
2022-12-27T16:38:03.769Z,23.23
2022-12-27T16:40:55.962Z,48.00
2022-12-27T16:44:07.177Z,28.45
2022-12-27T16:47:17.661Z,29.02
2022-12-27T16:50:20.444Z,49.17
2022-12-27T16:53:24.331Z,4.47
2022-12-27T16:56:19.253Z,15.85
2022-12-27T16:59:43.451Z,16.38
2022-12-27T17:02:41.836Z,2.55
2022-12-27T17:05:35.711Z,21.98
2022-12-27T17:08:22.455Z,7.63
2022-12-27T17:11:25.546Z,13.07
2022-12-27T17:14:27.942Z,10.13
2022-12-27T17:17:22.634Z,5.05
2022-12-27T17:20:15.952Z,4.57
2022-12-27T17:23:04.422Z,37.13
2022-12-27T17:26:00.546Z,28.52
2022-12-27T17:29:15.048Z,18.05
2022-12-27T17:32:21.916Z,0.17
2022-12-27T17:35:10.538Z,4.83
2022-12-27T17:38:23.385Z,13.13
2022-12-27T17:41:47.457Z,5.47
2022-12-27T17:44:48.346Z,3.50
2022-12-27T17:47:48.687Z,38.10
2022-12-27T17:50:36.792Z,3.53
2022-12-27T17:53:42.504Z,4.55
2022-12-27T17:56:46.521Z,2.55
2022-12-27T17:59:34.902Z,5.97
2022-12-27T18:02:34.487Z,42.38
2022-12-27T18:05:27.401Z,42.17
2022-12-27T18:08:28.166Z,19.90
2022-12-27T18:11:15.634Z,7.00
2022-12-27T18:14:01.887Z,28.93
2022-12-27T18:16:47.835Z,18.47
2022-12-27T18:19:33.429Z,4.55
2022-12-27T18:22:20.172Z,20.00
2022-12-27T18:25:46.133Z,10.47
2022-12-27T18:28:34.406Z,10.47
2022-12-27T18:31:35.004Z,28.67
2022-12-27T18:34:33.617Z,34.33
2022-12-27T18:37:21.999Z,52.70
2022-12-27T18:40:17.897Z,40.67
2022-12-27T18:43:03.623Z,30.13
2022-12-27T18:45:49.075Z,27.73
2022-12-27T18:48:36.223Z,58.17
2022-12-27T18:51:28.641Z,33.57
2022-12-27T18:54:35.955Z,46.57
2022-12-27T18:57:33.372Z,28.30
2022-12-27T19:00:22.208Z,41.47
2022-12-27T19:03:19.246Z,43.37
2022-12-27T19:06:13.113Z,40.93
2022-12-27T19:08:58.886Z,23.80
2022-12-27T19:11:57.652Z,28.27
2022-12-27T19:14:45.344Z,8.87
2022-12-27T19:17:32.922Z,8.93
2022-12-27T19:20:36.138Z,34.37
2022-12-27T19:23:37.140Z,44.37
2022-12-27T19:26:31.967Z,58.20
2022-12-27T19:29:23.539Z,31.30
2022-12-27T19:32:10.859Z,44.57
2022-12-27T19:34:59.945Z,44.97
2022-12-27T19:37:45.846Z,40.60
2022-12-27T19:40:31.741Z,13.23
2022-12-27T19:43:19.279Z,29.40
2022-12-27T19:46:05.223Z,48.77
2022-12-27T19:49:23.293Z,18.13
2022-12-27T19:51:57.341Z,61.17
2022-12-27T19:54:43.078Z,78.70
2022-12-27T19:57:29.067Z,45.93
2022-12-27T20:00:17.241Z,103.50
2022-12-27T20:03:03.307Z,57.03
2022-12-27T20:06:12.369Z,75.47
2022-12-27T20:08:54.630Z,20.73
2022-12-27T20:11:40.212Z,50.20
2022-12-27T20:14:25.752Z,80.00
2022-12-27T20:17:10.937Z,92.40
2022-12-27T20:19:56.446Z,31.97
2022-12-27T20:22:41.906Z,55.93
2022-12-27T20:25:27.531Z,34.60
2022-12-27T20:28:13.827Z,66.97
2022-12-27T20:30:59.753Z,22.07
2022-12-27T20:33:45.740Z,45.30
2022-12-27T20:36:31.277Z,30.43
2022-12-27T20:39:16.887Z,42.83
2022-12-27T20:42:03.423Z,32.90
2022-12-27T20:44:48.871Z,31.97
2022-12-27T20:47:34.299Z,20.60
2022-12-27T20:50:19.865Z,75.73
2022-12-27T20:53:05.755Z,51.47
2022-12-27T20:55:59.174Z,33.43
2022-12-27T20:58:45.024Z,59.60
2022-12-27T21:01:30.949Z,13.90
2022-12-27T21:04:16.849Z,46.13
2022-12-27T21:07:02.708Z,79.63
2022-12-27T21:09:48.385Z,81.47
2022-12-27T21:12:35.442Z,47.53
2022-12-27T21:15:21.163Z,25.03
2022-12-27T21:18:06.841Z,12.55
2022-12-27T21:20:52.405Z,67.37
2022-12-27T21:23:38.477Z,9.73
2022-12-27T21:26:27.591Z,1.70
2022-12-27T21:29:14.519Z,44.20
2022-12-27T21:32:01.484Z,46.53
2022-12-27T21:34:46.874Z,8.77
2022-12-27T21:37:32.442Z,14.10
2022-12-27T21:40:19.240Z,0.97
2022-12-27T21:43:05.103Z,3.77
2022-12-27T21:45:50.640Z,30.17
2022-12-27T21:48:37.754Z,34.37
2022-12-27T21:51:24.399Z,11.00
2022-12-27T21:54:11.419Z,15.10
2022-12-27T21:56:57.126Z,2.05
2022-12-27T21:59:42.515Z,1.52
2022-12-27T22:02:28.244Z,0.17
2022-12-27T22:05:14.216Z,5.60
2022-12-27T22:08:00.312Z,2.80
2022-12-27T22:10:57.016Z,20.47
2022-12-27T22:13:43.398Z,1.10
2022-12-27T22:16:32.064Z,1.00
2022-12-27T22:19:17.808Z,2.13
2022-12-27T22:22:03.683Z,1.80
2022-12-27T22:24:49.376Z,2.10
2022-12-27T22:27:35.123Z,7.43
2022-12-27T22:30:20.875Z,4.43
2022-12-27T22:33:06.910Z,8.15
2022-12-27T22:35:52.832Z,17.63
2022-12-27T22:38:38.364Z,20.83
2022-12-27T22:41:29.420Z,20.23
2022-12-27T22:44:15.602Z,33.13
2022-12-27T22:50:07.662Z,58.70
2022-12-27T22:52:54.639Z,20.67
2022-12-27T22:55:41.183Z,3.10
2022-12-27T22:58:33.588Z,8.47
2022-12-27T23:01:22.249Z,1.43
2022-12-27T23:04:12.040Z,10.37
2022-12-27T23:07:01.737Z,14.63
2022-12-27T23:09:47.140Z,23.07
2022-12-27T23:12:32.571Z,5.53
2022-12-27T23:15:18.339Z,36.67
2022-12-27T23:18:04.039Z,40.87
2022-12-27T23:21:20.804Z,0.10
2022-12-27T23:23:55.605Z,0.90
2022-12-27T23:26:42.392Z,0.57
2022-12-27T23:29:27.972Z,1.58
2022-12-27T23:32:13.655Z,1.13
2022-12-27T23:34:59.453Z,0.10
2022-12-27T23:37:44.848Z,8.75
2022-12-27T23:40:30.913Z,2.43
2022-12-27T23:43:50.599Z,0.30
2022-12-27T23:46:25.797Z,3.07
2022-12-27T23:49:11.691Z,0.63
2022-12-27T23:51:57.228Z,1.67
2022-12-27T23:54:42.744Z,1.23
2022-12-27T23:57:28.486Z,4.93
